sensor_id;sensor_type;location;lat;lon;timestamp;pressure;altitude;pressure_sealevel;temperature;humidity
13312;BME280;34033;48.672;9.376;2022-12-07T00:03:38;98597.47;;;6.22;79.03
13312;BME280;34033;48.672;9.376;2022-12-07T00:06:05;98601.66;;;6.16;79.42
13312;BME280;34033;48.672;9.376;2022-12-07T00:08:31;98597.59;;;5.98;80.10
13312;BME280;34033;48.672;9.376;2022-12-07T00:11:10;98599.22;;;5.99;80.39
13312;BME280;34033;48.672;9.376;2022-12-07T00:13:36;98590.09;;;5.98;80.39
13312;BME280;34033;48.672;9.376;2022-12-07T00:16:04;98593.06;;;6.05;80.81
13312;BME280;34033;48.672;9.376;2022-12-07T00:18:30;98594.75;;;6.10;80.27
13312;BME280;34033;48.672;9.376;2022-12-07T00:23:34;98596.72;;;6.09;79.95
13312;BME280;34033;48.672;9.376;2022-12-07T00:26:07;98595.91;;;6.09;80.09
13312;BME280;34033;48.672;9.376;2022-12-07T00:28:33;98593.94;;;6.09;80.13
13312;BME280;34033;48.672;9.376;2022-12-07T00:31:10;98595.13;;;6.08;80.14
13312;BME280;34033;48.672;9.376;2022-12-07T00:33:37;98590.38;;;6.09;80.42
13312;BME280;34033;48.672;9.376;2022-12-07T00:36:07;98594.50;;;6.15;80.26
13312;BME280;34033;48.672;9.376;2022-12-07T00:38:35;98596.13;;;6.16;80.04
13312;BME280;34033;48.672;9.376;2022-12-07T00:41:05;98596.81;;;6.13;80.28
13312;BME280;34033;48.672;9.376;2022-12-07T00:43:32;98594.50;;;6.15;80.53
13312;BME280;34033;48.672;9.376;2022-12-07T00:45:57;98588.94;;;6.15;80.21
13312;BME280;34033;48.672;9.376;2022-12-07T00:48:23;98586.16;;;6.15;80.70
13312;BME280;34033;48.672;9.376;2022-12-07T00:50:49;98592.19;;;6.17;80.43
13312;BME280;34033;48.672;9.376;2022-12-07T00:53:15;98587.78;;;6.16;80.64
13312;BME280;34033;48.672;9.376;2022-12-07T00:55:40;98591.72;;;6.15;80.69
13312;BME280;34033;48.672;9.376;2022-12-07T00:58:06;98594.56;;;6.18;80.45
13312;BME280;34033;48.672;9.376;2022-12-07T01:00:32;98588.41;;;6.25;80.00
13312;BME280;34033;48.672;9.376;2022-12-07T01:02:57;98585.16;;;6.23;79.91
13312;BME280;34033;48.672;9.376;2022-12-07T01:05:23;98586.16;;;6.31;79.99
13312;BME280;34033;48.672;9.376;2022-12-07T01:07:48;98585.81;;;6.32;79.48
13312;BME280;34033;48.672;9.376;2022-12-07T01:10:14;98592.97;;;6.33;79.75
13312;BME280;34033;48.672;9.376;2022-12-07T01:12:40;98590.91;;;6.30;79.44
13312;BME280;34033;48.672;9.376;2022-12-07T01:15:06;98591.91;;;6.22;79.58
13312;BME280;34033;48.672;9.376;2022-12-07T01:17:32;98589.66;;;6.12;79.98
13312;BME280;34033;48.672;9.376;2022-12-07T01:19:57;98590.38;;;6.09;80.49
13312;BME280;34033;48.672;9.376;2022-12-07T01:22:22;98588.41;;;6.09;80.40
13312;BME280;34033;48.672;9.376;2022-12-07T01:24:48;98589.00;;;6.03;79.96
13312;BME280;34033;48.672;9.376;2022-12-07T01:27:13;98591.50;;;5.92;80.16
13312;BME280;34033;48.672;9.376;2022-12-07T01:29:39;98590.94;;;5.86;80.20
13312;BME280;34033;48.672;9.376;2022-12-07T01:32:04;98595.47;;;5.79;80.55
13312;BME280;34033;48.672;9.376;2022-12-07T01:34:30;98595.84;;;5.77;81.03
13312;BME280;34033;48.672;9.376;2022-12-07T01:36:55;98604.53;;;5.76;80.97
13312;BME280;34033;48.672;9.376;2022-12-07T01:39:20;98597.47;;;5.78;81.00
13312;BME280;34033;48.672;9.376;2022-12-07T01:41:46;98616.09;;;5.78;81.05
13312;BME280;34033;48.672;9.376;2022-12-07T01:47:03;98602.22;;;5.78;81.13
13312;BME280;34033;48.672;9.376;2022-12-07T01:49:44;98607.38;;;5.79;80.91
13312;BME280;34033;48.672;9.376;2022-12-07T01:52:31;98609.13;;;5.84;81.42
13312;BME280;34033;48.672;9.376;2022-12-07T01:55:03;98614.22;;;5.82;80.85
13312;BME280;34033;48.672;9.376;2022-12-07T01:57:30;98610.69;;;5.69;81.32
13312;BME280;34033;48.672;9.376;2022-12-07T01:59:58;98603.38;;;5.49;81.17
13312;BME280;34033;48.672;9.376;2022-12-07T02:02:27;98600.31;;;5.38;81.36
13312;BME280;34033;48.672;9.376;2022-12-07T02:04:55;98599.50;;;5.38;81.53
13312;BME280;34033;48.672;9.376;2022-12-07T02:07:23;98614.22;;;5.14;81.91
13312;BME280;34033;48.672;9.376;2022-12-07T02:09:48;98604.75;;;5.27;82.29
13312;BME280;34033;48.672;9.376;2022-12-07T02:12:14;98609.78;;;5.37;81.86
13312;BME280;34033;48.672;9.376;2022-12-07T02:14:41;98607.56;;;5.43;81.36
13312;BME280;34033;48.672;9.376;2022-12-07T02:17:22;98610.72;;;5.29;80.72
13312;BME280;34033;48.672;9.376;2022-12-07T02:20:11;98610.94;;;5.36;80.91
13312;BME280;34033;48.672;9.376;2022-12-07T02:28:09;98602.88;;;5.31;80.33
13312;BME280;34033;48.672;9.376;2022-12-07T02:30:42;98598.28;;;5.23;80.45
13312;BME280;34033;48.672;9.376;2022-12-07T02:33:25;98596.84;;;5.29;80.54
13312;BME280;34033;48.672;9.376;2022-12-07T02:43:54;98591.69;;;5.56;79.63
13312;BME280;34033;48.672;9.376;2022-12-07T02:46:25;98595.56;;;5.67;79.39
13312;BME280;34033;48.672;9.376;2022-12-07T02:48:53;98593.59;;;5.67;78.98
13312;BME280;34033;48.672;9.376;2022-12-07T02:51:21;98597.91;;;5.80;78.56
13312;BME280;34033;48.672;9.376;2022-12-07T02:53:47;98592.91;;;5.86;78.10
13312;BME280;34033;48.672;9.376;2022-12-07T03:01:56;98592.69;;;6.07;78.03
13312;BME280;34033;48.672;9.376;2022-12-07T03:04:48;98591.19;;;6.09;77.95
13312;BME280;34033;48.672;9.376;2022-12-07T03:08:02;98591.19;;;6.09;77.94
13312;BME280;34033;48.672;9.376;2022-12-07T03:10:21;98588.47;;;6.13;78.01
13312;BME280;34033;48.672;9.376;2022-12-07T03:15:59;98573.09;;;6.15;77.07
13312;BME280;34033;48.672;9.376;2022-12-07T03:18:30;98573.78;;;6.12;76.92
13312;BME280;34033;48.672;9.376;2022-12-07T03:21:00;98578.38;;;6.20;77.24
13312;BME280;34033;48.672;9.376;2022-12-07T03:23:27;98575.31;;;6.25;77.33
13312;BME280;34033;48.672;9.376;2022-12-07T03:25:57;98577.38;;;6.28;76.69
13312;BME280;34033;48.672;9.376;2022-12-07T03:28:27;98577.28;;;6.25;77.14
13312;BME280;34033;48.672;9.376;2022-12-07T03:31:07;98579.53;;;6.19;77.22
13312;BME280;34033;48.672;9.376;2022-12-07T03:33:59;98587.13;;;6.07;77.55
13312;BME280;34033;48.672;9.376;2022-12-07T03:36:34;98581.50;;;6.03;77.95
13312;BME280;34033;48.672;9.376;2022-12-07T03:39:16;98581.59;;;6.07;77.88
13312;BME280;34033;48.672;9.376;2022-12-07T03:41:42;98578.56;;;6.12;77.43
13312;BME280;34033;48.672;9.376;2022-12-07T03:44:08;98572.09;;;6.55;88.78
13312;BME280;34033;48.672;9.376;2022-12-07T03:51:54;98567.16;;;6.48;76.30
13312;BME280;34033;48.672;9.376;2022-12-07T03:54:27;98570.75;;;6.49;75.09
13312;BME280;34033;48.672;9.376;2022-12-07T03:56:56;98576.13;;;6.42;75.43
13312;BME280;34033;48.672;9.376;2022-12-07T03:59:23;98575.25;;;6.38;75.95
13312;BME280;34033;48.672;9.376;2022-12-07T04:01:54;98573.16;;;6.35;76.51
13312;BME280;34033;48.672;9.376;2022-12-07T04:04:22;98571.47;;;6.30;76.46
13312;BME280;34033;48.672;9.376;2022-12-07T04:06:48;98579.09;;;6.33;75.48
13312;BME280;34033;48.672;9.376;2022-12-07T04:09:13;98567.88;;;6.29;76.33
13312;BME280;34033;48.672;9.376;2022-12-07T04:11:39;98570.31;;;6.31;76.14
13312;BME280;34033;48.672;9.376;2022-12-07T04:14:05;98561.53;;;6.29;76.19
13312;BME280;34033;48.672;9.376;2022-12-07T04:16:49;98557.88;;;6.25;76.41
13312;BME280;34033;48.672;9.376;2022-12-07T04:19:15;98559.91;;;6.79;91.01
13312;BME280;34033;48.672;9.376;2022-12-07T04:21:41;98561.66;;;6.67;88.19
13312;BME280;34033;48.672;9.376;2022-12-07T04:24:07;98555.94;;;6.60;80.48
13312;BME280;34033;48.672;9.376;2022-12-07T04:26:32;98563.81;;;6.58;77.17
13312;BME280;34033;48.672;9.376;2022-12-07T04:28:57;98567.34;;;6.55;75.45
13312;BME280;34033;48.672;9.376;2022-12-07T04:31:22;98562.50;;;6.52;75.56
13312;BME280;34033;48.672;9.376;2022-12-07T04:33:48;98558.38;;;6.46;75.85
13312;BME280;34033;48.672;9.376;2022-12-07T04:36:13;98569.88;;;6.45;76.13
13312;BME280;34033;48.672;9.376;2022-12-07T04:38:38;98560.72;;;6.44;75.78
13312;BME280;34033;48.672;9.376;2022-12-07T04:41:07;98552.00;;;6.46;75.57
13312;BME280;34033;48.672;9.376;2022-12-07T04:43:33;98557.94;;;6.44;75.34
13312;BME280;34033;48.672;9.376;2022-12-07T04:45:59;98553.09;;;6.41;75.59
13312;BME280;34033;48.672;9.376;2022-12-07T04:48:24;98548.00;;;6.43;75.34
13312;BME280;34033;48.672;9.376;2022-12-07T04:50:50;98548.34;;;6.42;75.86
13312;BME280;34033;48.672;9.376;2022-12-07T04:53:15;98549.09;;;6.39;75.46
13312;BME280;34033;48.672;9.376;2022-12-07T04:55:41;98547.38;;;6.34;76.09
13312;BME280;34033;48.672;9.376;2022-12-07T04:58:06;98551.69;;;6.32;76.34
13312;BME280;34033;48.672;9.376;2022-12-07T05:00:32;98545.59;;;6.26;76.49
13312;BME280;34033;48.672;9.376;2022-12-07T05:02:57;98550.69;;;6.24;76.95
13312;BME280;34033;48.672;9.376;2022-12-07T05:05:22;98545.34;;;6.15;77.69
13312;BME280;34033;48.672;9.376;2022-12-07T05:07:49;98548.03;;;6.12;77.21
13312;BME280;34033;48.672;9.376;2022-12-07T05:10:15;98556.59;;;6.07;76.96
13312;BME280;34033;48.672;9.376;2022-12-07T05:12:40;98548.66;;;6.05;77.05
13312;BME280;34033;48.672;9.376;2022-12-07T05:15:05;98541.22;;;6.09;77.34
13312;BME280;34033;48.672;9.376;2022-12-07T05:17:31;98541.94;;;7.69;100.00
13312;BME280;34033;48.672;9.376;2022-12-07T05:19:56;98539.47;;;9.41;100.00
13312;BME280;34033;48.672;9.376;2022-12-07T05:22:21;98534.13;;;9.29;86.63
13312;BME280;34033;48.672;9.376;2022-12-07T05:24:47;98526.41;;;9.15;76.86
13312;BME280;34033;48.672;9.376;2022-12-07T05:27:12;98526.09;;;8.94;72.46
13312;BME280;34033;48.672;9.376;2022-12-07T05:29:37;98520.09;;;8.92;75.79
13312;BME280;34033;48.672;9.376;2022-12-07T05:32:03;98524.66;;;8.77;72.21
13312;BME280;34033;48.672;9.376;2022-12-07T05:34:28;98519.25;;;8.61;71.32
13312;BME280;34033;48.672;9.376;2022-12-07T05:36:53;98518.63;;;8.45;70.09
13312;BME280;34033;48.672;9.376;2022-12-07T05:39:19;98518.00;;;8.32;70.87
13312;BME280;34033;48.672;9.376;2022-12-07T05:41:44;98520.56;;;8.18;69.11
13312;BME280;34033;48.672;9.376;2022-12-07T05:44:28;98523.47;;;8.03;67.49
13312;BME280;34033;48.672;9.376;2022-12-07T05:46:53;98519.66;;;7.88;67.88
13312;BME280;34033;48.672;9.376;2022-12-07T05:49:18;98529.34;;;7.75;67.48
13312;BME280;34033;48.672;9.376;2022-12-07T05:51:44;98520.22;;;7.78;70.70
13312;BME280;34033;48.672;9.376;2022-12-07T05:54:09;98528.53;;;7.74;71.28
13312;BME280;34033;48.672;9.376;2022-12-07T05:56:34;98530.81;;;7.69;69.21
13312;BME280;34033;48.672;9.376;2022-12-07T05:59:00;98531.16;;;7.67;70.64
13312;BME280;34033;48.672;9.376;2022-12-07T06:01:44;98529.94;;;7.65;71.61
13312;BME280;34033;48.672;9.376;2022-12-07T06:04:09;98527.47;;;7.60;69.98
13312;BME280;34033;48.672;9.376;2022-12-07T06:06:34;98534.19;;;7.59;70.36
13312;BME280;34033;48.672;9.376;2022-12-07T06:09:00;98527.63;;;7.47;68.73
13312;BME280;34033;48.672;9.376;2022-12-07T06:11:25;98540.09;;;7.15;68.81
13312;BME280;34033;48.672;9.376;2022-12-07T06:14:09;98541.69;;;6.97;69.55
13312;BME280;34033;48.672;9.376;2022-12-07T06:16:34;98553.53;;;6.94;70.04
13312;BME280;34033;48.672;9.376;2022-12-07T06:18:59;98554.50;;;6.66;70.45
13312;BME280;34033;48.672;9.376;2022-12-07T06:21:25;98557.22;;;6.47;71.65
13312;BME280;34033;48.672;9.376;2022-12-07T06:23:53;98561.78;;;6.40;71.93
13312;BME280;34033;48.672;9.376;2022-12-07T06:26:18;98553.34;;;6.52;74.34
13312;BME280;34033;48.672;9.376;2022-12-07T06:28:44;98551.34;;;6.68;75.64
13312;BME280;34033;48.672;9.376;2022-12-07T06:31:09;98554.06;;;6.84;73.84
13312;BME280;34033;48.672;9.376;2022-12-07T06:33:34;98552.78;;;6.97;74.33
13312;BME280;34033;48.672;9.376;2022-12-07T06:36:00;98551.50;;;7.10;73.96
13312;BME280;34033;48.672;9.376;2022-12-07T06:38:25;98561.88;;;6.78;71.01
13312;BME280;34033;48.672;9.376;2022-12-07T06:40:50;98560.38;;;6.81;74.58
13312;BME280;34033;48.672;9.376;2022-12-07T06:43:16;98558.13;;;6.86;74.04
13312;BME280;34033;48.672;9.376;2022-12-07T06:45:42;98559.81;;;6.91;72.86
13312;BME280;34033;48.672;9.376;2022-12-07T06:48:07;98556.44;;;7.01;73.74
13312;BME280;34033;48.672;9.376;2022-12-07T06:50:33;98567.44;;;6.94;71.19
13312;BME280;34033;48.672;9.376;2022-12-07T06:52:58;98563.91;;;6.97;72.28
13312;BME280;34033;48.672;9.376;2022-12-07T06:55:23;98561.59;;;6.99;71.87
13312;BME280;34033;48.672;9.376;2022-12-07T06:57:49;98566.09;;;6.88;69.65
13312;BME280;34033;48.672;9.376;2022-12-07T07:00:14;98570.09;;;6.90;71.03
13312;BME280;34033;48.672;9.376;2022-12-07T07:02:40;98565.81;;;6.93;72.17
13312;BME280;34033;48.672;9.376;2022-12-07T07:05:05;98577.53;;;7.02;71.73
13312;BME280;34033;48.672;9.376;2022-12-07T07:07:31;98579.47;;;6.82;68.53
13312;BME280;34033;48.672;9.376;2022-12-07T07:09:56;98576.06;;;6.73;70.44
13312;BME280;34033;48.672;9.376;2022-12-07T07:12:21;98582.59;;;6.81;71.99
13312;BME280;34033;48.672;9.376;2022-12-07T07:14:47;98577.41;;;6.79;69.43
13312;BME280;34033;48.672;9.376;2022-12-07T07:17:12;98581.44;;;6.82;69.30
13312;BME280;34033;48.672;9.376;2022-12-07T07:19:38;98585.66;;;6.76;68.65
13312;BME280;34033;48.672;9.376;2022-12-07T07:22:03;98591.28;;;6.79;72.48
13312;BME280;34033;48.672;9.376;2022-12-07T07:24:29;98573.03;;;6.62;72.30
13312;BME280;34033;48.672;9.376;2022-12-07T07:26:54;98573.78;;;6.59;70.96
13312;BME280;34033;48.672;9.376;2022-12-07T07:29:20;98583.19;;;6.55;70.33
13312;BME280;34033;48.672;9.376;2022-12-07T07:31:45;98594.72;;;6.57;70.01
13312;BME280;34033;48.672;9.376;2022-12-07T07:34:10;98587.66;;;6.59;69.73
13312;BME280;34033;48.672;9.376;2022-12-07T07:36:36;98587.09;;;6.69;69.76
13312;BME280;34033;48.672;9.376;2022-12-07T07:39:01;98591.28;;;6.79;68.85
13312;BME280;34033;48.672;9.376;2022-12-07T07:41:26;98597.31;;;6.81;68.37
13312;BME280;34033;48.672;9.376;2022-12-07T07:43:52;98591.78;;;6.65;68.43
13312;BME280;34033;48.672;9.376;2022-12-07T07:46:17;98593.94;;;6.56;68.75
13312;BME280;34033;48.672;9.376;2022-12-07T07:48:42;98596.34;;;6.58;69.27
13312;BME280;34033;48.672;9.376;2022-12-07T07:51:08;98603.88;;;6.57;69.66
13312;BME280;34033;48.672;9.376;2022-12-07T07:53:33;98606.38;;;6.62;69.59
13312;BME280;34033;48.672;9.376;2022-12-07T07:55:59;98604.38;;;6.79;70.55
13312;BME280;34033;48.672;9.376;2022-12-07T07:58:24;98609.53;;;6.96;70.99
13312;BME280;34033;48.672;9.376;2022-12-07T08:00:50;98616.53;;;7.05;69.05
13312;BME280;34033;48.672;9.376;2022-12-07T08:03:16;98615.56;;;7.17;68.67
13312;BME280;34033;48.672;9.376;2022-12-07T08:05:41;98607.75;;;7.23;70.28
13312;BME280;34033;48.672;9.376;2022-12-07T08:08:06;98606.38;;;7.32;70.78
13312;BME280;34033;48.672;9.376;2022-12-07T08:10:32;98604.31;;;7.29;70.94
13312;BME280;34033;48.672;9.376;2022-12-07T08:12:57;98602.19;;;7.61;81.17
13312;BME280;34033;48.672;9.376;2022-12-07T08:15:44;98595.69;;;7.53;75.71
13312;BME280;34033;48.672;9.376;2022-12-07T08:18:11;98598.63;;;7.61;72.44
13312;BME280;34033;48.672;9.376;2022-12-07T08:20:37;98612.91;;;7.59;71.52
13312;BME280;34033;48.672;9.376;2022-12-07T08:23:04;98608.75;;;7.49;69.05
13312;BME280;34033;48.672;9.376;2022-12-07T08:25:29;98611.66;;;7.76;75.14
13312;BME280;34033;48.672;9.376;2022-12-07T08:27:55;98609.88;;;7.68;72.29
13312;BME280;34033;48.672;9.376;2022-12-07T08:30:20;98616.91;;;7.62;70.33
13312;BME280;34033;48.672;9.376;2022-12-07T08:32:46;98615.41;;;7.64;68.95
13312;BME280;34033;48.672;9.376;2022-12-07T08:35:13;98615.25;;;7.76;69.03
13312;BME280;34033;48.672;9.376;2022-12-07T08:37:39;98616.19;;;7.65;68.14
13312;BME280;34033;48.672;9.376;2022-12-07T08:40:07;98617.22;;;7.76;73.62
13312;BME280;34033;48.672;9.376;2022-12-07T08:42:33;98618.53;;;7.63;71.59
13312;BME280;34033;48.672;9.376;2022-12-07T08:45:12;98626.53;;;7.64;70.07
13312;BME280;34033;48.672;9.376;2022-12-07T08:47:46;98623.88;;;7.52;68.08
13312;BME280;34033;48.672;9.376;2022-12-07T08:50:14;98610.09;;;7.40;69.31
13312;BME280;34033;48.672;9.376;2022-12-07T08:52:40;98616.66;;;7.12;68.71
13312;BME280;34033;48.672;9.376;2022-12-07T08:55:06;98620.78;;;7.19;72.39
13312;BME280;34033;48.672;9.376;2022-12-07T08:57:33;98622.50;;;7.07;70.98
13312;BME280;34033;48.672;9.376;2022-12-07T09:00:00;98612.00;;;7.17;70.23
13312;BME280;34033;48.672;9.376;2022-12-07T09:02:25;98614.88;;;7.20;70.42
13312;BME280;34033;48.672;9.376;2022-12-07T09:04:50;98620.41;;;7.20;69.67
13312;BME280;34033;48.672;9.376;2022-12-07T09:07:16;98620.88;;;7.22;70.49
13312;BME280;34033;48.672;9.376;2022-12-07T09:09:41;98619.84;;;7.11;69.40
13312;BME280;34033;48.672;9.376;2022-12-07T09:12:07;98613.88;;;7.12;69.93
13312;BME280;34033;48.672;9.376;2022-12-07T09:14:33;98622.84;;;7.22;70.49
13312;BME280;34033;48.672;9.376;2022-12-07T09:17:11;98610.41;;;7.16;69.29
13312;BME280;34033;48.672;9.376;2022-12-07T09:19:38;98616.19;;;6.91;68.59
13312;BME280;34033;48.672;9.376;2022-12-07T09:22:03;98613.47;;;6.95;70.66
13312;BME280;34033;48.672;9.376;2022-12-07T09:24:30;98623.16;;;7.01;72.06
13312;BME280;34033;48.672;9.376;2022-12-07T09:26:56;98618.78;;;7.00;70.26
13312;BME280;34033;48.672;9.376;2022-12-07T09:29:22;98619.91;;;7.15;72.61
13312;BME280;34033;48.672;9.376;2022-12-07T09:31:47;98626.47;;;7.06;70.61
13312;BME280;34033;48.672;9.376;2022-12-07T09:34:12;98616.44;;;7.02;70.32
13312;BME280;34033;48.672;9.376;2022-12-07T09:36:38;98619.19;;;6.83;69.54
13312;BME280;34033;48.672;9.376;2022-12-07T09:39:03;98611.50;;;6.95;70.70
13312;BME280;34033;48.672;9.376;2022-12-07T09:41:31;98614.69;;;7.13;72.55
13312;BME280;34033;48.672;9.376;2022-12-07T09:44:14;98614.00;;;7.35;70.33
13312;BME280;34033;48.672;9.376;2022-12-07T09:46:43;98617.34;;;7.44;70.19
13312;BME280;34033;48.672;9.376;2022-12-07T09:49:14;98605.22;;;7.52;70.17
13312;BME280;34033;48.672;9.376;2022-12-07T09:51:41;98602.72;;;7.47;68.13
13312;BME280;34033;48.672;9.376;2022-12-07T09:54:09;98605.94;;;7.30;70.15
13312;BME280;34033;48.672;9.376;2022-12-07T09:56:37;98595.91;;;7.45;71.38
13312;BME280;34033;48.672;9.376;2022-12-07T09:59:02;98588.06;;;7.50;69.42
13312;BME280;34033;48.672;9.376;2022-12-07T10:01:31;98585.91;;;7.60;67.92
13312;BME280;34033;48.672;9.376;2022-12-07T10:04:09;98586.97;;;7.74;67.64
13312;BME280;34033;48.672;9.376;2022-12-07T10:06:35;98585.16;;;7.63;67.16
13312;BME280;34033;48.672;9.376;2022-12-07T10:09:00;98583.13;;;7.60;67.33
13312;BME280;34033;48.672;9.376;2022-12-07T10:11:26;98585.59;;;7.65;67.03
13312;BME280;34033;48.672;9.376;2022-12-07T10:13:52;98579.06;;;7.57;67.95
13312;BME280;34033;48.672;9.376;2022-12-07T10:18:50;98576.75;;;7.21;66.74
13312;BME280;34033;48.672;9.376;2022-12-07T10:21:18;98580.81;;;7.07;66.63
13312;BME280;34033;48.672;9.376;2022-12-07T10:26:33;98570.03;;;7.22;68.29
13312;BME280;34033;48.672;9.376;2022-12-07T10:29:01;98567.66;;;7.43;67.41
13312;BME280;34033;48.672;9.376;2022-12-07T10:31:27;98560.56;;;7.65;66.60
13312;BME280;34033;48.672;9.376;2022-12-07T10:33:58;98559.97;;;7.55;65.13
13312;BME280;34033;48.672;9.376;2022-12-07T10:41:28;98560.41;;;7.58;64.73
13312;BME280;34033;48.672;9.376;2022-12-07T10:43:55;98563.22;;;7.38;63.54
13312;BME280;34033;48.672;9.376;2022-12-07T10:52:38;98547.97;;;7.51;63.47
13312;BME280;34033;48.672;9.376;2022-12-07T11:11:18;98530.16;;;10.48;62.93
13312;BME280;34033;48.672;9.376;2022-12-07T11:13:55;98517.34;;;10.43;58.90
13312;BME280;34033;48.672;9.376;2022-12-07T11:19:49;98520.28;;;9.36;57.17
13312;BME280;34033;48.672;9.376;2022-12-07T11:27:52;98512.56;;;8.92;58.65
13312;BME280;34033;48.672;9.376;2022-12-07T11:30:34;98510.41;;;8.82;59.79
13312;BME280;34033;48.672;9.376;2022-12-07T11:33:15;98509.06;;;8.72;60.39
13312;BME280;34033;48.672;9.376;2022-12-07T11:38:43;98501.81;;;8.15;60.33
13312;BME280;34033;48.672;9.376;2022-12-07T11:41:11;98491.28;;;8.05;61.44
13312;BME280;34033;48.672;9.376;2022-12-07T11:44:05;98488.91;;;8.04;60.52
13312;BME280;34033;48.672;9.376;2022-12-07T11:47:21;98489.63;;;8.01;61.28
13312;BME280;34033;48.672;9.376;2022-12-07T11:51:52;98485.03;;;7.89;61.41
13312;BME280;34033;48.672;9.376;2022-12-07T11:54:32;98484.06;;;7.78;62.46
13312;BME280;34033;48.672;9.376;2022-12-07T11:57:04;98474.72;;;7.67;60.09
13312;BME280;34033;48.672;9.376;2022-12-07T11:59:39;98473.69;;;7.75;62.43
13312;BME280;34033;48.672;9.376;2022-12-07T12:02:14;98468.84;;;7.94;62.91
13312;BME280;34033;48.672;9.376;2022-12-07T12:07:13;98466.31;;;7.86;60.56
13312;BME280;34033;48.672;9.376;2022-12-07T12:09:49;98460.75;;;7.86;61.21
13312;BME280;34033;48.672;9.376;2022-12-07T12:12:30;98460.75;;;7.86;61.73
13312;BME280;34033;48.672;9.376;2022-12-07T12:15:27;98450.16;;;7.95;63.02
13312;BME280;34033;48.672;9.376;2022-12-07T12:20:37;98451.97;;;7.84;61.55
13312;BME280;34033;48.672;9.376;2022-12-07T12:23:22;98451.44;;;8.01;61.92
13312;BME280;34033;48.672;9.376;2022-12-07T12:26:01;98451.69;;;8.15;61.67
13312;BME280;34033;48.672;9.376;2022-12-07T12:28:40;98449.53;;;8.05;61.12
13312;BME280;34033;48.672;9.376;2022-12-07T12:33:55;98446.41;;;7.84;60.56
13312;BME280;34033;48.672;9.376;2022-12-07T12:36:44;98449.97;;;7.84;62.07
13312;BME280;34033;48.672;9.376;2022-12-07T12:39:13;98445.31;;;7.66;61.21
13312;BME280;34033;48.672;9.376;2022-12-07T12:54:58;98445.50;;;7.53;62.44
13312;BME280;34033;48.672;9.376;2022-12-07T12:57:27;98446.16;;;7.70;63.94
13312;BME280;34033;48.672;9.376;2022-12-07T13:02:38;98433.19;;;7.77;62.63
13312;BME280;34033;48.672;9.376;2022-12-07T13:18:36;98410.34;;;8.17;61.51
13312;BME280;34033;48.672;9.376;2022-12-07T13:23:55;98405.69;;;8.25;62.57
13312;BME280;34033;48.672;9.376;2022-12-07T13:26:22;98403.75;;;8.29;62.42
13312;BME280;34033;48.672;9.376;2022-12-07T13:31:45;98403.13;;;8.13;60.97
13312;BME280;34033;48.672;9.376;2022-12-07T13:36:55;98402.44;;;7.93;63.59
13312;BME280;34033;48.672;9.376;2022-12-07T13:39:23;98404.94;;;8.02;62.78
13312;BME280;34033;48.672;9.376;2022-12-07T13:41:51;98402.31;;;8.12;63.28
13312;BME280;34033;48.672;9.376;2022-12-07T13:44:17;98403.47;;;8.11;61.88
13312;BME280;34033;48.672;9.376;2022-12-07T13:46:54;98404.78;;;8.17;60.89
13312;BME280;34033;48.672;9.376;2022-12-07T13:49:29;98403.97;;;8.17;61.11
13312;BME280;34033;48.672;9.376;2022-12-07T13:52:28;98403.97;;;8.17;60.80
13312;BME280;34033;48.672;9.376;2022-12-07T13:57:32;98404.34;;;8.15;62.43
13312;BME280;34033;48.672;9.376;2022-12-07T14:00:00;98409.53;;;8.17;63.03
13312;BME280;34033;48.672;9.376;2022-12-07T14:02:31;98401.91;;;8.10;63.47
13312;BME280;34033;48.672;9.376;2022-12-07T14:08:01;98397.22;;;7.91;65.31
13312;BME280;34033;48.672;9.376;2022-12-07T14:10:28;98404.41;;;7.92;65.30
13312;BME280;34033;48.672;9.376;2022-12-07T14:12:55;98395.16;;;7.62;66.00
13312;BME280;34033;48.672;9.376;2022-12-07T14:15:29;98407.75;;;7.56;65.83
13312;BME280;34033;48.672;9.376;2022-12-07T14:17:56;98405.25;;;7.47;67.25
13312;BME280;34033;48.672;9.376;2022-12-07T14:20:48;98404.88;;;7.49;66.66
13312;BME280;34033;48.672;9.376;2022-12-07T14:23:24;98393.84;;;7.56;67.71
13312;BME280;34033;48.672;9.376;2022-12-07T14:25:51;98397.63;;;7.67;68.45
13312;BME280;34033;48.672;9.376;2022-12-07T14:28:36;98399.34;;;7.75;67.96
13312;BME280;34033;48.672;9.376;2022-12-07T14:31:03;98391.72;;;7.72;67.36
13312;BME280;34033;48.672;9.376;2022-12-07T14:33:33;98388.56;;;7.47;66.43
13312;BME280;34033;48.672;9.376;2022-12-07T14:35:58;98390.16;;;7.48;67.41
13312;BME280;34033;48.672;9.376;2022-12-07T14:38:24;98396.53;;;7.07;67.06
13312;BME280;34033;48.672;9.376;2022-12-07T14:40:53;98393.25;;;7.01;67.28
13312;BME280;34033;48.672;9.376;2022-12-07T14:43:39;98404.09;;;7.06;67.75
13312;BME280;34033;48.672;9.376;2022-12-07T14:46:05;98402.09;;;7.07;66.62
13312;BME280;34033;48.672;9.376;2022-12-07T14:48:30;98397.19;;;7.20;67.57
13312;BME280;34033;48.672;9.376;2022-12-07T14:50:55;98403.38;;;7.32;67.83
13312;BME280;34033;48.672;9.376;2022-12-07T14:53:25;98401.53;;;7.63;75.53
13312;BME280;34033;48.672;9.376;2022-12-07T14:55:54;98397.56;;;7.64;68.83
13312;BME280;34033;48.672;9.376;2022-12-07T14:58:20;98398.69;;;7.59;66.81
13312;BME280;34033;48.672;9.376;2022-12-07T15:00:45;98395.53;;;7.61;66.34
13312;BME280;34033;48.672;9.376;2022-12-07T15:03:12;98400.63;;;7.55;65.63
13312;BME280;34033;48.672;9.376;2022-12-07T15:05:38;98402.00;;;7.45;65.64
13312;BME280;34033;48.672;9.376;2022-12-07T15:08:05;98400.72;;;7.39;66.24
13312;BME280;34033;48.672;9.376;2022-12-07T15:10:34;98406.41;;;7.46;66.91
13312;BME280;34033;48.672;9.376;2022-12-07T15:13:04;98402.94;;;7.53;67.23
13312;BME280;34033;48.672;9.376;2022-12-07T15:15:49;98396.72;;;7.60;66.78
13312;BME280;34033;48.672;9.376;2022-12-07T15:18:15;98393.13;;;7.59;66.04
13312;BME280;34033;48.672;9.376;2022-12-07T15:20:41;98399.84;;;7.58;65.32
13312;BME280;34033;48.672;9.376;2022-12-07T15:23:07;98403.56;;;7.43;65.07
13312;BME280;34033;48.672;9.376;2022-12-07T15:25:33;98398.81;;;7.43;65.46
13312;BME280;34033;48.672;9.376;2022-12-07T15:27:58;98398.81;;;7.43;65.73
13312;BME280;34033;48.672;9.376;2022-12-07T15:30:24;98395.59;;;7.41;65.46
13312;BME280;34033;48.672;9.376;2022-12-07T15:32:53;98393.13;;;7.36;65.01